sensor_id;sensor_type;location;lat;lon;timestamp;temperature;humidity
11836;DHT22;5977;51.972;7.640;2023-07-16T00:00:24;24.20;90.90
11836;DHT22;5977;51.972;7.640;2023-07-16T00:02:55;24.30;91.00
11836;DHT22;5977;51.972;7.640;2023-07-16T00:05:23;24.20;91.20
11836;DHT22;5977;51.972;7.640;2023-07-16T00:07:51;24.30;91.10
11836;DHT22;5977;51.972;7.640;2023-07-16T00:10:19;24.40;90.80
11836;DHT22;5977;51.972;7.640;2023-07-16T00:12:47;24.20;91.10
11836;DHT22;5977;51.972;7.640;2023-07-16T00:15:15;24.20;91.80
11836;DHT22;5977;51.972;7.640;2023-07-16T00:17:43;24.10;91.70
11836;DHT22;5977;51.972;7.640;2023-07-16T00:20:13;24.20;92.10
11836;DHT22;5977;51.972;7.640;2023-07-16T00:22:40;24.20;92.00
11836;DHT22;5977;51.972;7.640;2023-07-16T00:25:09;24.10;92.00
11836;DHT22;5977;51.972;7.640;2023-07-16T00:27:37;24.10;91.20
11836;DHT22;5977;51.972;7.640;2023-07-16T00:30:06;24.20;91.70
11836;DHT22;5977;51.972;7.640;2023-07-16T00:32:34;24.10;91.70
11836;DHT22;5977;51.972;7.640;2023-07-16T00:35:02;24.10;91.90
11836;DHT22;5977;51.972;7.640;2023-07-16T00:37:33;24.20;91.90
11836;DHT22;5977;51.972;7.640;2023-07-16T00:40:01;24.20;91.90
11836;DHT22;5977;51.972;7.640;2023-07-16T00:42:29;24.20;91.90
11836;DHT22;5977;51.972;7.640;2023-07-16T00:44:57;24.20;91.40
11836;DHT22;5977;51.972;7.640;2023-07-16T00:47:25;24.40;91.40
11836;DHT22;5977;51.972;7.640;2023-07-16T00:49:53;24.30;91.00
11836;DHT22;5977;51.972;7.640;2023-07-16T00:52:22;24.20;91.20
11836;DHT22;5977;51.972;7.640;2023-07-16T00:54:51;24.30;91.30
11836;DHT22;5977;51.972;7.640;2023-07-16T00:57:19;24.30;91.10
11836;DHT22;5977;51.972;7.640;2023-07-16T00:59:47;24.10;92.00
11836;DHT22;5977;51.972;7.640;2023-07-16T01:02:16;24.10;91.60
11836;DHT22;5977;51.972;7.640;2023-07-16T01:04:44;24.20;91.40
11836;DHT22;5977;51.972;7.640;2023-07-16T01:07:14;24.10;92.00
11836;DHT22;5977;51.972;7.640;2023-07-16T01:09:43;24.10;91.20
11836;DHT22;5977;51.972;7.640;2023-07-16T01:12:13;24.20;91.80
11836;DHT22;5977;51.972;7.640;2023-07-16T01:14:42;24.10;91.30
11836;DHT22;5977;51.972;7.640;2023-07-16T01:17:10;24.10;91.50
11836;DHT22;5977;51.972;7.640;2023-07-16T01:19:38;24.20;91.80
11836;DHT22;5977;51.972;7.640;2023-07-16T01:22:34;24.30;91.80
11836;DHT22;5977;51.972;7.640;2023-07-16T01:25:21;24.20;91.10
11836;DHT22;5977;51.972;7.640;2023-07-16T01:28:05;24.20;91.50
11836;DHT22;5977;51.972;7.640;2023-07-16T01:30:37;24.30;90.70
11836;DHT22;5977;51.972;7.640;2023-07-16T01:33:07;24.10;90.80
11836;DHT22;5977;51.972;7.640;2023-07-16T01:35:37;24.10;91.20
11836;DHT22;5977;51.972;7.640;2023-07-16T01:38:07;24.10;90.90
11836;DHT22;5977;51.972;7.640;2023-07-16T01:40:35;24.10;90.90
11836;DHT22;5977;51.972;7.640;2023-07-16T01:43:03;24.20;91.00
11836;DHT22;5977;51.972;7.640;2023-07-16T01:45:31;23.80;91.20
11836;DHT22;5977;51.972;7.640;2023-07-16T01:48:09;23.90;91.80
11836;DHT22;5977;51.972;7.640;2023-07-16T01:50:41;23.80;91.20
11836;DHT22;5977;51.972;7.640;2023-07-16T01:53:09;23.60;91.90
11836;DHT22;5977;51.972;7.640;2023-07-16T01:55:37;23.70;92.90
11836;DHT22;5977;51.972;7.640;2023-07-16T01:58:05;23.90;93.00
11836;DHT22;5977;51.972;7.640;2023-07-16T02:00:33;23.70;92.80
11836;DHT22;5977;51.972;7.640;2023-07-16T02:03:03;23.60;92.40
11836;DHT22;5977;51.972;7.640;2023-07-16T02:05:31;23.80;93.10
11836;DHT22;5977;51.972;7.640;2023-07-16T02:07:59;23.70;92.40
11836;DHT22;5977;51.972;7.640;2023-07-16T02:10:27;23.60;92.50
11836;DHT22;5977;51.972;7.640;2023-07-16T02:12:55;23.40;93.20
11836;DHT22;5977;51.972;7.640;2023-07-16T02:15:23;23.60;93.00
11836;DHT22;5977;51.972;7.640;2023-07-16T02:17:51;23.60;92.90
11836;DHT22;5977;51.972;7.640;2023-07-16T02:20:20;23.70;92.60
11836;DHT22;5977;51.972;7.640;2023-07-16T02:22:49;23.80;92.00
11836;DHT22;5977;51.972;7.640;2023-07-16T02:25:17;23.70;91.90
11836;DHT22;5977;51.972;7.640;2023-07-16T02:27:47;23.60;92.30
11836;DHT22;5977;51.972;7.640;2023-07-16T02:30:15;23.80;92.40
11836;DHT22;5977;51.972;7.640;2023-07-16T02:32:43;23.70;92.00
11836;DHT22;5977;51.972;7.640;2023-07-16T02:35:11;23.70;92.60
11836;DHT22;5977;51.972;7.640;2023-07-16T02:37:40;23.80;92.90
11836;DHT22;5977;51.972;7.640;2023-07-16T02:40:09;23.80;91.90
11836;DHT22;5977;51.972;7.640;2023-07-16T02:42:36;23.60;92.10
11836;DHT22;5977;51.972;7.640;2023-07-16T02:45:06;23.50;93.30
11836;DHT22;5977;51.972;7.640;2023-07-16T02:47:35;23.50;94.30
11836;DHT22;5977;51.972;7.640;2023-07-16T02:50:03;23.50;93.00
11836;DHT22;5977;51.972;7.640;2023-07-16T02:52:31;23.50;92.30
11836;DHT22;5977;51.972;7.640;2023-07-16T02:55:01;23.30;92.30
11836;DHT22;5977;51.972;7.640;2023-07-16T02:57:29;23.40;92.80
11836;DHT22;5977;51.972;7.640;2023-07-16T02:59:57;23.30;93.90
11836;DHT22;5977;51.972;7.640;2023-07-16T03:02:25;23.20;93.20
11836;DHT22;5977;51.972;7.640;2023-07-16T03:04:53;23.30;93.90
11836;DHT22;5977;51.972;7.640;2023-07-16T03:07:21;23.20;93.30
11836;DHT22;5977;51.972;7.640;2023-07-16T03:09:50;23.20;93.30
11836;DHT22;5977;51.972;7.640;2023-07-16T03:12:19;23.40;93.00
11836;DHT22;5977;51.972;7.640;2023-07-16T03:14:47;23.40;92.70
11836;DHT22;5977;51.972;7.640;2023-07-16T03:17:15;23.10;92.60
11836;DHT22;5977;51.972;7.640;2023-07-16T03:19:43;23.30;93.00
11836;DHT22;5977;51.972;7.640;2023-07-16T03:22:12;23.10;92.70
11836;DHT22;5977;51.972;7.640;2023-07-16T03:24:40;23.10;93.40
11836;DHT22;5977;51.972;7.640;2023-07-16T03:27:08;23.10;93.10
11836;DHT22;5977;51.972;7.640;2023-07-16T03:29:48;22.80;93.80
11836;DHT22;5977;51.972;7.640;2023-07-16T03:32:17;22.60;94.90
11836;DHT22;5977;51.972;7.640;2023-07-16T03:34:46;23.00;94.40
11836;DHT22;5977;51.972;7.640;2023-07-16T03:37:14;22.60;94.50
11836;DHT22;5977;51.972;7.640;2023-07-16T03:39:42;22.80;94.60
11836;DHT22;5977;51.972;7.640;2023-07-16T03:42:10;22.60;95.40
11836;DHT22;5977;51.972;7.640;2023-07-16T03:44:38;22.90;94.30
11836;DHT22;5977;51.972;7.640;2023-07-16T03:47:07;22.90;93.70
11836;DHT22;5977;51.972;7.640;2023-07-16T03:49:36;23.00;93.30
11836;DHT22;5977;51.972;7.640;2023-07-16T03:52:04;23.10;93.30
11836;DHT22;5977;51.972;7.640;2023-07-16T03:54:32;22.80;93.90
11836;DHT22;5977;51.972;7.640;2023-07-16T03:57:00;22.90;93.80
11836;DHT22;5977;51.972;7.640;2023-07-16T03:59:29;22.90;93.60
11836;DHT22;5977;51.972;7.640;2023-07-16T04:01:57;22.80;93.80
11836;DHT22;5977;51.972;7.640;2023-07-16T04:04:27;22.90;93.20
11836;DHT22;5977;51.972;7.640;2023-07-16T04:06:55;23.10;93.00
11836;DHT22;5977;51.972;7.640;2023-07-16T04:09:38;22.90;93.30
11836;DHT22;5977;51.972;7.640;2023-07-16T04:12:07;23.00;93.10
11836;DHT22;5977;51.972;7.640;2023-07-16T04:14:35;22.80;92.60
11836;DHT22;5977;51.972;7.640;2023-07-16T04:17:03;22.80;93.20
11836;DHT22;5977;51.972;7.640;2023-07-16T04:19:31;23.00;93.10
11836;DHT22;5977;51.972;7.640;2023-07-16T04:21:59;23.10;92.70
11836;DHT22;5977;51.972;7.640;2023-07-16T04:24:27;23.10;92.90
11836;DHT22;5977;51.972;7.640;2023-07-16T04:26:57;23.20;92.90
11836;DHT22;5977;51.972;7.640;2023-07-16T04:29:25;23.10;92.10
11836;DHT22;5977;51.972;7.640;2023-07-16T04:31:53;23.20;92.50
11836;DHT22;5977;51.972;7.640;2023-07-16T04:34:21;23.20;92.00
11836;DHT22;5977;51.972;7.640;2023-07-16T04:36:49;23.30;92.00
11836;DHT22;5977;51.972;7.640;2023-07-16T04:39:17;23.00;91.80
11836;DHT22;5977;51.972;7.640;2023-07-16T04:41:45;22.90;92.80
11836;DHT22;5977;51.972;7.640;2023-07-16T04:44:14;23.10;92.00
11836;DHT22;5977;51.972;7.640;2023-07-16T04:46:42;23.70;91.10
11836;DHT22;5977;51.972;7.640;2023-07-16T04:49:10;24.90;86.50
11836;DHT22;5977;51.972;7.640;2023-07-16T04:51:38;25.50;81.60
11836;DHT22;5977;51.972;7.640;2023-07-16T04:54:06;26.00;78.40
11836;DHT22;5977;51.972;7.640;2023-07-16T04:56:34;26.80;76.00
11836;DHT22;5977;51.972;7.640;2023-07-16T04:59:02;26.90;72.60
11836;DHT22;5977;51.972;7.640;2023-07-16T05:01:31;27.20;72.20
11836;DHT22;5977;51.972;7.640;2023-07-16T05:03:59;27.40;70.40
11836;DHT22;5977;51.972;7.640;2023-07-16T05:06:28;27.30;68.10
11836;DHT22;5977;51.972;7.640;2023-07-16T05:08:55;26.70;70.20
11836;DHT22;5977;51.972;7.640;2023-07-16T05:11:23;25.60;71.90
11836;DHT22;5977;51.972;7.640;2023-07-16T05:13:52;25.00;75.40
11836;DHT22;5977;51.972;7.640;2023-07-16T05:16:20;24.60;75.50
11836;DHT22;5977;51.972;7.640;2023-07-16T05:18:49;24.50;77.40
11836;DHT22;5977;51.972;7.640;2023-07-16T05:21:17;24.30;76.70
11836;DHT22;5977;51.972;7.640;2023-07-16T05:23:45;24.10;77.10
11836;DHT22;5977;51.972;7.640;2023-07-16T05:26:13;24.10;76.90
11836;DHT22;5977;51.972;7.640;2023-07-16T05:28:41;24.00;76.70
11836;DHT22;5977;51.972;7.640;2023-07-16T05:31:09;24.00;76.40
11836;DHT22;5977;51.972;7.640;2023-07-16T05:33:37;23.90;75.90
11836;DHT22;5977;51.972;7.640;2023-07-16T05:36:07;23.80;76.70
11836;DHT22;5977;51.972;7.640;2023-07-16T05:38:35;23.90;76.00
11836;DHT22;5977;51.972;7.640;2023-07-16T05:41:03;24.00;75.80
11836;DHT22;5977;51.972;7.640;2023-07-16T05:43:31;24.00;75.50
11836;DHT22;5977;51.972;7.640;2023-07-16T05:45:59;23.60;76.10
11836;DHT22;5977;51.972;7.640;2023-07-16T05:48:27;23.60;75.90
11836;DHT22;5977;51.972;7.640;2023-07-16T05:50:55;23.70;75.30
11836;DHT22;5977;51.972;7.640;2023-07-16T05:53:24;23.80;74.90
11836;DHT22;5977;51.972;7.640;2023-07-16T05:55:52;23.80;74.80
11836;DHT22;5977;51.972;7.640;2023-07-16T05:58:20;23.90;73.40
11836;DHT22;5977;51.972;7.640;2023-07-16T06:00:48;23.80;74.10
11836;DHT22;5977;51.972;7.640;2023-07-16T06:03:16;23.90;74.00
11836;DHT22;5977;51.972;7.640;2023-07-16T06:05:45;23.80;73.30
11836;DHT22;5977;51.972;7.640;2023-07-16T06:08:13;23.80;74.00
11836;DHT22;5977;51.972;7.640;2023-07-16T06:10:42;23.80;73.30
11836;DHT22;5977;51.972;7.640;2023-07-16T06:13:10;23.90;72.40
11836;DHT22;5977;51.972;7.640;2023-07-16T06:15:38;23.80;72.40
11836;DHT22;5977;51.972;7.640;2023-07-16T06:18:06;23.70;71.60
11836;DHT22;5977;51.972;7.640;2023-07-16T06:20:34;23.50;71.00
11836;DHT22;5977;51.972;7.640;2023-07-16T06:23:02;23.70;72.30
11836;DHT22;5977;51.972;7.640;2023-07-16T06:25:30;23.60;70.40
11836;DHT22;5977;51.972;7.640;2023-07-16T06:27:59;23.30;70.60
11836;DHT22;5977;51.972;7.640;2023-07-16T06:30:27;23.50;70.90
11836;DHT22;5977;51.972;7.640;2023-07-16T06:32:57;23.60;70.60
11836;DHT22;5977;51.972;7.640;2023-07-16T06:35:25;23.50;70.00
11836;DHT22;5977;51.972;7.640;2023-07-16T06:37:53;23.60;69.80
11836;DHT22;5977;51.972;7.640;2023-07-16T06:40:21;23.60;69.80
11836;DHT22;5977;51.972;7.640;2023-07-16T06:42:49;23.70;69.60
11836;DHT22;5977;51.972;7.640;2023-07-16T06:45:18;23.60;69.50
11836;DHT22;5977;51.972;7.640;2023-07-16T06:47:46;23.70;69.10
11836;DHT22;5977;51.972;7.640;2023-07-16T06:50:14;23.60;67.90
11836;DHT22;5977;51.972;7.640;2023-07-16T06:52:42;23.80;69.50
11836;DHT22;5977;51.972;7.640;2023-07-16T06:55:10;23.80;67.40
11836;DHT22;5977;51.972;7.640;2023-07-16T06:57:38;23.90;69.40
11836;DHT22;5977;51.972;7.640;2023-07-16T07:00:07;24.10;68.50
11836;DHT22;5977;51.972;7.640;2023-07-16T07:02:39;24.30;68.90
11836;DHT22;5977;51.972;7.640;2023-07-16T07:05:08;24.30;67.20
11836;DHT22;5977;51.972;7.640;2023-07-16T07:07:36;24.10;66.80
11836;DHT22;5977;51.972;7.640;2023-07-16T07:10:04;24.00;66.70
11836;DHT22;5977;51.972;7.640;2023-07-16T07:12:33;24.00;67.70
11836;DHT22;5977;51.972;7.640;2023-07-16T07:15:05;23.90;67.40
11836;DHT22;5977;51.972;7.640;2023-07-16T07:17:33;23.90;67.00
11836;DHT22;5977;51.972;7.640;2023-07-16T07:20:03;23.90;66.90
11836;DHT22;5977;51.972;7.640;2023-07-16T07:22:31;24.00;67.30
11836;DHT22;5977;51.972;7.640;2023-07-16T07:24:59;24.10;67.30
11836;DHT22;5977;51.972;7.640;2023-07-16T07:27:27;24.10;67.20
11836;DHT22;5977;51.972;7.640;2023-07-16T07:29:55;24.20;67.40
11836;DHT22;5977;51.972;7.640;2023-07-16T07:32:23;24.20;67.40
11836;DHT22;5977;51.972;7.640;2023-07-16T07:34:51;24.20;66.40
11836;DHT22;5977;51.972;7.640;2023-07-16T07:37:20;24.20;66.30
11836;DHT22;5977;51.972;7.640;2023-07-16T07:39:52;24.20;66.50
11836;DHT22;5977;51.972;7.640;2023-07-16T07:42:20;24.20;65.80
11836;DHT22;5977;51.972;7.640;2023-07-16T07:44:51;24.10;65.60
11836;DHT22;5977;51.972;7.640;2023-07-16T07:47:19;23.90;66.00
11836;DHT22;5977;51.972;7.640;2023-07-16T07:49:47;24.10;65.90
11836;DHT22;5977;51.972;7.640;2023-07-16T07:52:15;24.30;65.60
11836;DHT22;5977;51.972;7.640;2023-07-16T07:54:44;24.20;65.50
11836;DHT22;5977;51.972;7.640;2023-07-16T07:57:12;24.30;65.30
11836;DHT22;5977;51.972;7.640;2023-07-16T07:59:43;24.20;65.80
11836;DHT22;5977;51.972;7.640;2023-07-16T08:02:11;24.30;65.40
11836;DHT22;5977;51.972;7.640;2023-07-16T08:04:39;24.20;64.70
11836;DHT22;5977;51.972;7.640;2023-07-16T08:07:07;24.20;64.70
11836;DHT22;5977;51.972;7.640;2023-07-16T08:09:37;24.40;64.40
11836;DHT22;5977;51.972;7.640;2023-07-16T08:12:07;24.50;64.10
11836;DHT22;5977;51.972;7.640;2023-07-16T08:14:36;24.50;63.60
11836;DHT22;5977;51.972;7.640;2023-07-16T08:17:04;24.80;62.90
11836;DHT22;5977;51.972;7.640;2023-07-16T08:19:32;25.40;61.80
11836;DHT22;5977;51.972;7.640;2023-07-16T08:22:00;25.90;60.00
11836;DHT22;5977;51.972;7.640;2023-07-16T08:24:28;26.00;60.40
11836;DHT22;5977;51.972;7.640;2023-07-16T08:26:56;26.30;59.50
11836;DHT22;5977;51.972;7.640;2023-07-16T08:29:25;26.50;58.80
11836;DHT22;5977;51.972;7.640;2023-07-16T08:31:53;26.40;58.30
11836;DHT22;5977;51.972;7.640;2023-07-16T08:34:21;26.40;57.80
11836;DHT22;5977;51.972;7.640;2023-07-16T08:36:49;26.80;58.20
11836;DHT22;5977;51.972;7.640;2023-07-16T08:39:17;27.20;57.80
11836;DHT22;5977;51.972;7.640;2023-07-16T08:41:47;26.70;57.30
11836;DHT22;5977;51.972;7.640;2023-07-16T08:44:16;26.50;58.30
11836;DHT22;5977;51.972;7.640;2023-07-16T08:46:46;26.50;58.20
11836;DHT22;5977;51.972;7.640;2023-07-16T08:49:17;26.30;57.90
11836;DHT22;5977;51.972;7.640;2023-07-16T08:51:46;26.90;57.50
11836;DHT22;5977;51.972;7.640;2023-07-16T08:54:15;27.30;55.70
11836;DHT22;5977;51.972;7.640;2023-07-16T08:56:44;27.50;56.30
11836;DHT22;5977;51.972;7.640;2023-07-16T08:59:14;27.70;56.00
11836;DHT22;5977;51.972;7.640;2023-07-16T09:01:42;27.80;55.00
11836;DHT22;5977;51.972;7.640;2023-07-16T09:04:12;27.70;54.70
11836;DHT22;5977;51.972;7.640;2023-07-16T09:06:40;27.40;55.10
11836;DHT22;5977;51.972;7.640;2023-07-16T09:09:08;27.30;56.70
11836;DHT22;5977;51.972;7.640;2023-07-16T09:11:36;27.40;56.40
11836;DHT22;5977;51.972;7.640;2023-07-16T09:14:03;27.60;54.90
11836;DHT22;5977;51.972;7.640;2023-07-16T09:16:32;27.60;55.50
11836;DHT22;5977;51.972;7.640;2023-07-16T09:19:06;27.20;55.20
11836;DHT22;5977;51.972;7.640;2023-07-16T09:21:36;27.00;54.80
11836;DHT22;5977;51.972;7.640;2023-07-16T09:24:07;27.30;55.50
11836;DHT22;5977;51.972;7.640;2023-07-16T09:26:36;27.00;54.90
11836;DHT22;5977;51.972;7.640;2023-07-16T09:29:05;27.40;54.70
11836;DHT22;5977;51.972;7.640;2023-07-16T09:31:34;27.50;55.40
11836;DHT22;5977;51.972;7.640;2023-07-16T09:34:02;27.40;54.40
11836;DHT22;5977;51.972;7.640;2023-07-16T09:36:30;27.50;54.00
11836;DHT22;5977;51.972;7.640;2023-07-16T09:38:59;27.70;54.50
11836;DHT22;5977;51.972;7.640;2023-07-16T09:41:28;27.90;54.20
11836;DHT22;5977;51.972;7.640;2023-07-16T09:43:56;28.00;53.90
11836;DHT22;5977;51.972;7.640;2023-07-16T09:46:25;28.00;54.50
11836;DHT22;5977;51.972;7.640;2023-07-16T09:48:53;28.00;53.40
11836;DHT22;5977;51.972;7.640;2023-07-16T09:51:21;27.80;53.60
11836;DHT22;5977;51.972;7.640;2023-07-16T09:53:51;27.30;53.50
11836;DHT22;5977;51.972;7.640;2023-07-16T09:56:21;27.10;53.90
11836;DHT22;5977;51.972;7.640;2023-07-16T09:58:49;27.30;54.50
11836;DHT22;5977;51.972;7.640;2023-07-16T10:01:20;27.20;55.20
11836;DHT22;5977;51.972;7.640;2023-07-16T10:03:49;27.30;55.70
11836;DHT22;5977;51.972;7.640;2023-07-16T10:06:17;27.40;55.50
11836;DHT22;5977;51.972;7.640;2023-07-16T10:08:49;27.40;55.10
11836;DHT22;5977;51.972;7.640;2023-07-16T10:11:18;27.30;54.70
11836;DHT22;5977;51.972;7.640;2023-07-16T10:13:51;27.00;54.80
11836;DHT22;5977;51.972;7.640;2023-07-16T10:16:20;27.20;55.50
11836;DHT22;5977;51.972;7.640;2023-07-16T10:18:51;27.20;54.70
11836;DHT22;5977;51.972;7.640;2023-07-16T10:21:23;26.90;53.70
11836;DHT22;5977;51.972;7.640;2023-07-16T10:23:57;26.60;54.70
11836;DHT22;5977;51.972;7.640;2023-07-16T10:26:27;26.60;54.60
11836;DHT22;5977;51.972;7.640;2023-07-16T10:28:57;26.60;55.30
11836;DHT22;5977;51.972;7.640;2023-07-16T10:31:25;26.60;56.80
11836;DHT22;5977;51.972;7.640;2023-07-16T10:33:59;26.60;56.70
11836;DHT22;5977;51.972;7.640;2023-07-16T10:36:27;26.50;55.60
11836;DHT22;5977;51.972;7.640;2023-07-16T10:39:01;26.50;56.80
11836;DHT22;5977;51.972;7.640;2023-07-16T10:41:30;26.30;56.00
11836;DHT22;5977;51.972;7.640;2023-07-16T10:44:00;26.30;55.20
11836;DHT22;5977;51.972;7.640;2023-07-16T10:46:28;26.10;55.60
11836;DHT22;5977;51.972;7.640;2023-07-16T10:48:56;26.00;55.70
11836;DHT22;5977;51.972;7.640;2023-07-16T10:51:25;25.80;55.60
11836;DHT22;5977;51.972;7.640;2023-07-16T10:53:55;25.70;56.20
11836;DHT22;5977;51.972;7.640;2023-07-16T10:56:23;25.80;56.40
11836;DHT22;5977;51.972;7.640;2023-07-16T10:58:52;25.70;55.80
11836;DHT22;5977;51.972;7.640;2023-07-16T11:01:21;25.60;57.00
11836;DHT22;5977;51.972;7.640;2023-07-16T11:03:49;25.60;56.60
11836;DHT22;5977;51.972;7.640;2023-07-16T11:06:18;25.70;56.80
11836;DHT22;5977;51.972;7.640;2023-07-16T11:08:47;25.60;56.60
11836;DHT22;5977;51.972;7.640;2023-07-16T11:11:15;25.70;57.00
11836;DHT22;5977;51.972;7.640;2023-07-16T11:13:43;25.60;57.80
11836;DHT22;5977;51.972;7.640;2023-07-16T11:16:15;25.60;57.40
11836;DHT22;5977;51.972;7.640;2023-07-16T11:18:47;25.60;57.10
11836;DHT22;5977;51.972;7.640;2023-07-16T11:21:18;25.60;56.90
11836;DHT22;5977;51.972;7.640;2023-07-16T11:23:47;25.60;57.50
11836;DHT22;5977;51.972;7.640;2023-07-16T11:26:15;25.60;57.40
11836;DHT22;5977;51.972;7.640;2023-07-16T11:28:43;25.60;57.40
11836;DHT22;5977;51.972;7.640;2023-07-16T11:31:13;25.60;57.10
11836;DHT22;5977;51.972;7.640;2023-07-16T11:33:42;25.50;56.60
11836;DHT22;5977;51.972;7.640;2023-07-16T11:36:12;25.40;57.20
11836;DHT22;5977;51.972;7.640;2023-07-16T11:38:41;25.30;57.30
11836;DHT22;5977;51.972;7.640;2023-07-16T11:41:09;25.40;57.70
11836;DHT22;5977;51.972;7.640;2023-07-16T11:43:40;25.40;58.00
11836;DHT22;5977;51.972;7.640;2023-07-16T11:46:15;25.50;57.50
11836;DHT22;5977;51.972;7.640;2023-07-16T11:48:44;25.40;57.60
11836;DHT22;5977;51.972;7.640;2023-07-16T11:51:14;25.50;57.70
11836;DHT22;5977;51.972;7.640;2023-07-16T11:53:42;25.60;58.40
11836;DHT22;5977;51.972;7.640;2023-07-16T11:56:09;25.60;57.50
11836;DHT22;5977;51.972;7.640;2023-07-16T11:58:37;25.60;57.30
11836;DHT22;5977;51.972;7.640;2023-07-16T12:01:05;25.50;57.50
11836;DHT22;5977;51.972;7.640;2023-07-16T12:03:34;25.60;57.50
11836;DHT22;5977;51.972;7.640;2023-07-16T12:06:02;25.70;57.60
11836;DHT22;5977;51.972;7.640;2023-07-16T12:08:31;25.70;57.40
11836;DHT22;5977;51.972;7.640;2023-07-16T12:10:59;25.50;56.30
11836;DHT22;5977;51.972;7.640;2023-07-16T12:13:29;25.40;56.90
11836;DHT22;5977;51.972;7.640;2023-07-16T12:15:57;25.60;57.60
11836;DHT22;5977;51.972;7.640;2023-07-16T12:18:24;25.60;57.60
11836;DHT22;5977;51.972;7.640;2023-07-16T12:20:53;25.70;57.50
11836;DHT22;5977;51.972;7.640;2023-07-16T12:23:21;25.60;57.60
11836;DHT22;5977;51.972;7.640;2023-07-16T12:25:50;25.60;56.90
11836;DHT22;5977;51.972;7.640;2023-07-16T12:28:18;25.50;57.60
11836;DHT22;5977;51.972;7.640;2023-07-16T12:30:47;25.50;57.80
11836;DHT22;5977;51.972;7.640;2023-07-16T12:33:15;25.50;57.40
11836;DHT22;5977;51.972;7.640;2023-07-16T12:35:43;25.50;57.90
11836;DHT22;5977;51.972;7.640;2023-07-16T12:38:12;25.60;57.70
11836;DHT22;5977;51.972;7.640;2023-07-16T12:40:40;25.60;57.30
11836;DHT22;5977;51.972;7.640;2023-07-16T12:43:09;25.50;57.50
11836;DHT22;5977;51.972;7.640;2023-07-16T12:45:37;25.60;57.10
11836;DHT22;5977;51.972;7.640;2023-07-16T12:48:05;25.60;57.60
11836;DHT22;5977;51.972;7.640;2023-07-16T12:50:33;25.60;57.30
11836;DHT22;5977;51.972;7.640;2023-07-16T12:53:02;25.60;57.20
11836;DHT22;5977;51.972;7.640;2023-07-16T12:55:30;25.80;57.40
11836;DHT22;5977;51.972;7.640;2023-07-16T12:58:00;25.60;56.90
11836;DHT22;5977;51.972;7.640;2023-07-16T13:00:29;25.50;57.20
11836;DHT22;5977;51.972;7.640;2023-07-16T13:02:57;25.40;57.50
11836;DHT22;5977;51.972;7.640;2023-07-16T13:05:25;25.40;58.10
11836;DHT22;5977;51.972;7.640;2023-07-16T13:07:53;25.50;57.80
11836;DHT22;5977;51.972;7.640;2023-07-16T13:10:22;25.60;57.60
11836;DHT22;5977;51.972;7.640;2023-07-16T13:12:50;25.60;57.60
11836;DHT22;5977;51.972;7.640;2023-07-16T13:15:18;25.70;57.50
11836;DHT22;5977;51.972;7.640;2023-07-16T13:17:47;25.70;57.90
11836;DHT22;5977;51.972;7.640;2023-07-16T13:20:16;25.70;56.90
11836;DHT22;5977;51.972;7.640;2023-07-16T13:22:44;25.70;57.20
11836;DHT22;5977;51.972;7.640;2023-07-16T13:25:13;25.60;57.50
11836;DHT22;5977;51.972;7.640;2023-07-16T13:27:41;25.70;57.80
11836;DHT22;5977;51.972;7.640;2023-07-16T13:30:09;25.70;57.30
11836;DHT22;5977;51.972;7.640;2023-07-16T13:32:37;25.60;57.60
11836;DHT22;5977;51.972;7.640;2023-07-16T13:35:07;25.60;57.70
11836;DHT22;5977;51.972;7.640;2023-07-16T13:37:35;25.60;57.50
11836;DHT22;5977;51.972;7.640;2023-07-16T13:40:04;25.70;57.80
11836;DHT22;5977;51.972;7.640;2023-07-16T13:42:32;25.60;57.50
11836;DHT22;5977;51.972;7.640;2023-07-16T13:45:00;25.70;58.10
11836;DHT22;5977;51.972;7.640;2023-07-16T13:47:28;25.70;58.20
11836;DHT22;5977;51.972;7.640;2023-07-16T13:49:56;25.70;58.70
11836;DHT22;5977;51.972;7.640;2023-07-16T13:52:26;25.90;58.60
11836;DHT22;5977;51.972;7.640;2023-07-16T13:54:53;25.90;58.30
11836;DHT22;5977;51.972;7.640;2023-07-16T13:57:22;25.90;58.10
11836;DHT22;5977;51.972;7.640;2023-07-16T13:59:50;25.90;58.40
11836;DHT22;5977;51.972;7.640;2023-07-16T14:02:17;25.90;58.10
11836;DHT22;5977;51.972;7.640;2023-07-16T14:04:46;25.90;57.60
11836;DHT22;5977;51.972;7.640;2023-07-16T14:07:14;25.90;57.60
11836;DHT22;5977;51.972;7.640;2023-07-16T14:09:43;25.90;57.80
11836;DHT22;5977;51.972;7.640;2023-07-16T14:12:11;25.90;57.40
11836;DHT22;5977;51.972;7.640;2023-07-16T14:14:39;25.90;57.90
11836;DHT22;5977;51.972;7.640;2023-07-16T14:17:07;26.00;57.90
11836;DHT22;5977;51.972;7.640;2023-07-16T14:19:35;26.00;57.50
11836;DHT22;5977;51.972;7.640;2023-07-16T14:22:03;25.90;57.60
11836;DHT22;5977;51.972;7.640;2023-07-16T14:24:32;26.00;57.80
11836;DHT22;5977;51.972;7.640;2023-07-16T14:27:01;26.00;57.60
11836;DHT22;5977;51.972;7.640;2023-07-16T14:29:29;25.90;57.30
11836;DHT22;5977;51.972;7.640;2023-07-16T14:31:57;25.90;57.60
11836;DHT22;5977;51.972;7.640;2023-07-16T14:34:25;25.80;57.50
11836;DHT22;5977;51.972;7.640;2023-07-16T14:36:53;25.80;57.30
11836;DHT22;5977;51.972;7.640;2023-07-16T14:39:21;25.80;56.80
11836;DHT22;5977;51.972;7.640;2023-07-16T14:41:49;25.80;57.30
11836;DHT22;5977;51.972;7.640;2023-07-16T14:44:18;25.90;57.60
11836;DHT22;5977;51.972;7.640;2023-07-16T14:46:46;25.80;57.30
11836;DHT22;5977;51.972;7.640;2023-07-16T14:49:15;25.90;57.10
11836;DHT22;5977;51.972;7.640;2023-07-16T14:51:43;25.70;57.90
11836;DHT22;5977;51.972;7.640;2023-07-16T14:54:10;25.80;57.30
11836;DHT22;5977;51.972;7.640;2023-07-16T14:56:38;25.60;56.40
11836;DHT22;5977;51.972;7.640;2023-07-16T14:59:06;25.70;57.30
11836;DHT22;5977;51.972;7.640;2023-07-16T15:01:36;25.90;57.40
11836;DHT22;5977;51.972;7.640;2023-07-16T15:04:05;25.90;57.10
11836;DHT22;5977;51.972;7.640;2023-07-16T15:06:33;26.00;56.80
11836;DHT22;5977;51.972;7.640;2023-07-16T15:09:01;26.00;57.10
11836;DHT22;5977;51.972;7.640;2023-07-16T15:11:30;26.10;57.10
11836;DHT22;5977;51.972;7.640;2023-07-16T15:14:00;26.10;57.30
11836;DHT22;5977;51.972;7.640;2023-07-16T15:16:29;26.20;57.50
11836;DHT22;5977;51.972;7.640;2023-07-16T15:18:58;26.20;56.90
11836;DHT22;5977;51.972;7.640;2023-07-16T15:21:27;26.20;57.00
11836;DHT22;5977;51.972;7.640;2023-07-16T15:23:54;26.30;56.70
11836;DHT22;5977;51.972;7.640;2023-07-16T15:26:22;26.30;57.10
11836;DHT22;5977;51.972;7.640;2023-07-16T15:28:50;26.20;55.70
11836;DHT22;5977;51.972;7.640;2023-07-16T15:31:18;26.20;56.70
11836;DHT22;5977;51.972;7.640;2023-07-16T15:33:54;26.10;56.70
11836;DHT22;5977;51.972;7.640;2023-07-16T15:36:24;26.10;55.70
11836;DHT22;5977;51.972;7.640;2023-07-16T15:38:52;26.00;56.10
11836;DHT22;5977;51.972;7.640;2023-07-16T15:41:20;26.00;56.30
11836;DHT22;5977;51.972;7.640;2023-07-16T15:43:52;26.00;56.70
11836;DHT22;5977;51.972;7.640;2023-07-16T15:46:20;26.10;56.40
11836;DHT22;5977;51.972;7.640;2023-07-16T15:48:48;26.10;56.50
11836;DHT22;5977;51.972;7.640;2023-07-16T15:51:16;26.00;56.80
11836;DHT22;5977;51.972;7.640;2023-07-16T15:53:52;26.00;57.00